Time;durP1;ratioP1;P1;durP2;ratioP2;P2;SDS_P1;SDS_P2;PMS_P1;PMS_P2;Temp;Humidity;BMP_temperature;BMP_pressure;BME280_temperature;BME280_humidity;BME280_pressure;Samples;Min_cycle;Max_cycle;Signal;HPM_P1;HPM_P2
2022/04/14 00:00:36;;;;;;;20.85;16.48;;;10.80;99.90;;;;;;2519035;23;20596;-70
2022/04/14 00:01:36;;;;;;;21.08;16.92;;;10.80;99.90;;;;;;2519090;23;20002;-70
2022/04/14 00:02:37;;;;;;;21.65;16.65;;;10.70;99.90;;;;;;2519953;23;20014;-70
2022/04/14 00:03:40;;;;;;;20.20;15.90;;;10.70;99.90;;;;;;2519523;23;20013;-70
2022/04/14 00:04:40;;;;;;;20.73;15.85;;;10.70;99.90;;;;;;2519917;23;20014;-70
2022/04/14 00:05:41;;;;;;;22.55;16.40;;;10.70;99.90;;;;;;2519149;23;20483;-70
2022/04/14 00:06:42;;;;;;;23.50;16.65;;;10.70;99.90;;;;;;2519330;23;20439;-71
2022/04/14 00:07:44;;;;;;;21.38;15.93;;;10.70;99.90;;;;;;2519068;23;20351;-72
2022/04/14 00:08:44;;;;;;;22.58;16.02;;;10.70;99.90;;;;;;2519219;23;20014;-71
2022/04/14 00:09:45;;;;;;;21.15;15.93;;;10.70;99.90;;;;;;2519310;23;20030;-71
2022/04/14 00:10:46;;;;;;;21.83;15.48;;;10.70;99.90;;;;;;2519359;23;20045;-70
2022/04/14 00:11:46;;;;;;;22.27;15.82;;;10.80;99.90;;;;;;2519865;23;20045;-71
2022/04/14 00:12:48;;;;;;;21.38;15.30;;;10.70;99.90;;;;;;2519856;23;20038;-71
2022/04/14 00:13:48;;;;;;;20.77;14.82;;;10.70;99.90;;;;;;2519705;23;20017;-71
2022/04/14 00:14:49;;;;;;;19.77;14.90;;;10.70;99.90;;;;;;2519213;23;20045;-72
2022/04/14 00:15:49;;;;;;;22.02;15.02;;;10.70;99.90;;;;;;2518856;23;20006;-70
2022/04/14 00:16:50;;;;;;;19.63;14.57;;;10.70;99.90;;;;;;2518875;23;20014;-69
2022/04/14 00:17:50;;;;;;;19.98;14.75;;;10.70;99.90;;;;;;2518884;23;20002;-70
2022/04/14 00:18:51;;;;;;;23.63;15.32;;;10.70;99.90;;;;;;2519645;23;20049;-69
2022/04/14 00:19:52;;;;;;;20.15;15.10;;;10.70;99.90;;;;;;2519662;23;20011;-69
2022/04/14 00:20:52;;;;;;;21.88;15.48;;;10.70;99.90;;;;;;2519587;23;20002;-69
2022/04/14 00:21:53;;;;;;;21.98;15.18;;;10.70;99.90;;;;;;2519648;23;20002;-69
2022/04/14 00:22:53;;;;;;;19.50;14.27;;;10.70;99.90;;;;;;2519592;23;20010;-71
2022/04/14 00:23:54;;;;;;;19.90;14.75;;;10.70;99.90;;;;;;2519177;23;20006;-71
2022/04/14 00:24:55;;;;;;;20.55;15.25;;;10.70;99.90;;;;;;2518737;23;20014;-71
2022/04/14 00:25:55;;;;;;;21.67;14.55;;;10.70;99.90;;;;;;2519411;23;20007;-72
2022/04/14 00:26:56;;;;;;;19.77;15.18;;;10.70;99.90;;;;;;2520311;23;20022;-71
2022/04/14 00:27:57;;;;;;;20.98;15.30;;;10.70;99.90;;;;;;2518995;23;20006;-71
2022/04/14 00:28:57;;;;;;;19.33;14.75;;;10.70;99.90;;;;;;2519086;23;20017;-72
2022/04/14 00:29:58;;;;;;;19.73;14.43;;;10.70;99.90;;;;;;2518849;23;20021;-70
2022/04/14 00:30:59;;;;;;;19.60;14.48;;;10.70;99.90;;;;;;2519233;23;20090;-71
2022/04/14 00:32:00;;;;;;;21.95;14.73;;;10.70;99.90;;;;;;2519550;23;20443;-71
2022/04/14 00:33:01;;;;;;;20.42;15.20;;;10.70;99.90;;;;;;2519623;23;20010;-71
2022/04/14 00:34:02;;;;;;;20.73;14.70;;;10.70;99.90;;;;;;2519220;23;20010;-71
2022/04/14 00:35:03;;;;;;;20.35;14.82;;;10.70;99.90;;;;;;2519469;23;20042;-70
2022/04/14 00:36:04;;;;;;;18.75;14.63;;;10.70;99.90;;;;;;2519890;23;20043;-71
2022/04/14 00:37:05;;;;;;;22.70;14.75;;;10.70;99.90;;;;;;2519827;23;20011;-70
2022/04/14 00:38:05;;;;;;;21.15;14.43;;;10.70;99.90;;;;;;2519783;23;20018;-70
2022/04/14 00:39:09;;;;;;;19.92;14.85;;;10.70;99.90;;;;;;2519534;23;20029;-70
2022/04/14 00:40:10;;;;;;;20.02;14.50;;;10.70;99.90;;;;;;2519712;23;20086;-71
2022/04/14 00:41:11;;;;;;;22.17;14.15;;;10.70;99.90;;;;;;2519762;23;20002;-70
2022/04/14 00:42:13;;;;;;;22.15;14.70;;;10.70;99.90;;;;;;2520063;23;20026;-71
2022/04/14 00:43:14;;;;;;;18.25;14.10;;;10.70;99.90;;;;;;2519812;23;20050;-71
2022/04/14 00:44:14;;;;;;;19.25;14.05;;;10.70;99.90;;;;;;2520359;23;20002;-71
2022/04/14 00:45:15;;;;;;;18.08;13.65;;;10.70;99.90;;;;;;2520968;23;20017;-70
2022/04/14 00:46:15;;;;;;;19.58;14.38;;;10.70;99.90;;;;;;2520336;23;20466;-70
2022/04/14 00:47:17;;;;;;;19.00;14.05;;;10.70;99.90;;;;;;2520285;23;20383;-70
2022/04/14 00:48:17;;;;;;;18.00;13.60;;;10.60;99.90;;;;;;2520140;23;20375;-71
2022/04/14 00:49:19;;;;;;;17.63;13.43;;;10.60;99.90;;;;;;2519244;23;20014;-71
2022/04/14 00:50:20;;;;;;;16.58;13.27;;;10.60;99.90;;;;;;2519120;23;20670;-70
2022/04/14 00:51:21;;;;;;;19.20;13.70;;;10.60;99.90;;;;;;2519867;23;20011;-70
2022/04/14 00:52:22;;;;;;;17.33;13.30;;;10.60;99.90;;;;;;2521120;23;20443;-70
2022/04/14 00:53:23;;;;;;;17.48;13.38;;;10.60;99.90;;;;;;2521953;23;20446;-71
2022/04/14 00:54:24;;;;;;;16.75;13.00;;;10.60;99.90;;;;;;2522077;23;20629;-70
2022/04/14 00:55:24;;;;;;;17.92;13.70;;;10.60;99.90;;;;;;2521325;23;20009;-70
2022/04/14 00:56:25;;;;;;;17.23;13.10;;;10.60;99.90;;;;;;2518957;23;20010;-70
2022/04/14 00:57:25;;;;;;;16.48;12.75;;;10.50;99.90;;;;;;2519033;23;20010;-70
2022/04/14 00:58:26;;;;;;;16.10;12.93;;;10.50;99.90;;;;;;2518720;23;20006;-70
2022/04/14 00:59:27;;;;;;;17.17;12.77;;;10.50;99.90;;;;;;2518655;23;20435;-70
2022/04/14 01:00:28;;;;;;;17.73;13.90;;;10.50;99.90;;;;;;2520146;23;20014;-70
2022/04/14 01:01:28;;;;;;;17.92;13.07;;;10.50;99.90;;;;;;2520163;23;20003;-70
2022/04/14 01:02:29;;;;;;;15.48;12.73;;;10.50;99.90;;;;;;2519589;23;20674;-71
2022/04/14 01:03:30;;;;;;;15.45;12.82;;;10.50;99.90;;;;;;2519299;23;20009;-72
2022/04/14 01:04:31;;;;;;;17.08;13.07;;;10.50;99.90;;;;;;2519521;23;20017;-71
2022/04/14 01:05:33;;;;;;;18.02;13.85;;;10.50;99.90;;;;;;2519464;23;20443;-72
2022/04/14 01:06:37;;;;;;;20.85;15.32;;;10.50;99.90;;;;;;2519428;23;20007;-72
2022/04/14 01:07:38;;;;;;;26.08;16.98;;;10.50;99.90;;;;;;2519264;23;20391;-72
2022/04/14 01:08:38;;;;;;;27.42;18.73;;;10.40;99.90;;;;;;2519433;23;20007;-72
2022/04/14 01:09:39;;;;;;;28.50;19.27;;;10.40;99.90;;;;;;2519185;23;20109;-72
2022/04/14 01:10:42;;;;;;;33.42;21.88;;;10.40;99.90;;;;;;2518449;23;20077;-72
2022/04/14 01:11:44;;;;;;;37.70;23.05;;;10.40;99.90;;;;;;2518637;23;20081;-72
2022/04/14 01:12:45;;;;;;;41.47;24.17;;;10.40;99.90;;;;;;2519267;23;20009;-72
2022/04/14 01:13:45;;;;;;;40.47;23.38;;;10.40;99.90;;;;;;2518950;23;20503;-72
2022/04/14 01:14:46;;;;;;;41.80;24.63;;;10.40;99.90;;;;;;2519425;23;20693;-72
2022/04/14 01:15:47;;;;;;;37.78;23.42;;;10.40;99.90;;;;;;2519771;23;20034;-72
2022/04/14 01:16:48;;;;;;;35.17;22.48;;;10.30;99.90;;;;;;2519608;23;20010;-72
2022/04/14 01:17:49;;;;;;;35.42;21.58;;;10.30;99.90;;;;;;2519626;23;20022;-71
2022/04/14 01:18:49;;;;;;;34.30;21.08;;;10.30;99.90;;;;;;2519720;23;20081;-73
2022/04/14 01:19:50;;;;;;;32.58;19.77;;;10.30;99.90;;;;;;2518992;23;20081;-71
2022/04/14 01:20:51;;;;;;;31.13;19.38;;;10.30;99.90;;;;;;2507244;23;20076;-71
2022/04/14 01:22:01;;;;;;;29.95;19.00;;;10.30;99.90;;;;;;2507270;23;20083;-72
2022/04/14 01:23:03;;;;;;;29.77;18.48;;;10.30;99.90;;;;;;2507186;23;20015;-73
2022/04/14 01:24:04;;;;;;;29.75;18.58;;;10.30;99.90;;;;;;2507334;23;20050;-71
2022/04/14 01:25:06;;;;;;;29.95;18.77;;;10.30;99.90;;;;;;2519996;23;20057;-71
2022/04/14 01:26:08;;;;;;;30.52;18.55;;;10.30;99.90;;;;;;2519188;23;20021;-71
2022/04/14 01:27:09;;;;;;;27.48;18.02;;;10.30;99.90;;;;;;2519298;23;20077;-71
2022/04/14 01:28:09;;;;;;;27.45;17.30;;;10.30;99.90;;;;;;2520206;23;20654;-72
2022/04/14 01:29:25;;;;;;;25.60;16.73;;;10.20;99.90;;;;;;2520058;23;20006;-72
2022/04/14 01:30:25;;;;;;;26.02;16.48;;;10.30;99.90;;;;;;2519525;23;20020;-72
2022/04/14 01:31:26;;;;;;;22.90;15.50;;;10.20;99.90;;;;;;2519600;23;20622;-72
2022/04/14 01:32:27;;;;;;;24.80;16.75;;;10.20;99.90;;;;;;2518850;23;20037;-71
2022/04/14 01:33:27;;;;;;;27.35;16.52;;;10.20;99.90;;;;;;2518441;23;20062;-72
2022/04/14 01:34:31;;;;;;;27.70;16.80;;;10.20;99.90;;;;;;2519495;23;20014;-72
2022/04/14 01:35:32;;;;;;;29.42;17.73;;;10.20;99.90;;;;;;2519803;23;20003;-72
2022/04/14 01:36:32;;;;;;;30.02;17.88;;;10.20;99.90;;;;;;2518525;23;20011;-72
2022/04/14 01:37:33;;;;;;;28.80;17.70;;;10.20;99.90;;;;;;2518617;23;20459;-72
2022/04/14 01:38:34;;;;;;;27.75;16.48;;;10.20;99.90;;;;;;2518782;23;20034;-72
2022/04/14 01:39:34;;;;;;;25.70;15.70;;;10.20;99.90;;;;;;2518653;23;20046;-72
2022/04/14 01:40:35;;;;;;;25.35;15.55;;;10.20;99.90;;;;;;2519406;23;20033;-72
2022/04/14 01:41:37;;;;;;;24.15;15.38;;;10.20;99.90;;;;;;2519562;23;20419;-73
2022/04/14 01:42:39;;;;;;;21.48;14.23;;;10.20;99.90;;;;;;2518450;23;20462;-72
2022/04/14 01:43:39;;;;;;;22.70;14.88;;;10.20;99.90;;;;;;2518225;23;20526;-72
2022/04/14 01:44:40;;;;;;;21.80;14.35;;;10.20;99.90;;;;;;2519170;23;20018;-72
2022/04/14 01:45:43;;;;;;;22.50;14.45;;;10.20;99.90;;;;;;2519251;23;20034;-72
2022/04/14 01:46:44;;;;;;;20.08;13.27;;;10.20;99.90;;;;;;2519439;23;20010;-72
2022/04/14 01:47:45;;;;;;;19.60;13.38;;;10.30;99.90;;;;;;2519351;23;20097;-72
2022/04/14 01:48:47;;;;;;;20.58;14.02;;;10.20;99.90;;;;;;2519375;23;20444;-72
2022/04/14 01:49:47;;;;;;;19.77;13.43;;;10.20;99.90;;;;;;2519488;23;20013;-72
2022/04/14 01:50:48;;;;;;;17.60;13.00;;;10.20;99.90;;;;;;2519504;23;20025;-71
2022/04/14 01:51:48;;;;;;;17.95;12.88;;;10.20;99.90;;;;;;2519764;23;20483;-73
2022/04/14 01:52:50;;;;;;;16.45;12.80;;;10.20;99.90;;;;;;2519532;23;20073;-72
2022/04/14 01:53:51;;;;;;;21.00;14.10;;;10.20;99.90;;;;;;2518845;23;20014;-71
2022/04/14 01:54:51;;;;;;;21.55;14.35;;;10.30;99.90;;;;;;2519152;23;20010;-72
2022/04/14 01:55:52;;;;;;;21.63;14.70;;;10.30;99.90;;;;;;2519330;23;20085;-73
2022/04/14 01:56:52;;;;;;;25.55;15.23;;;10.20;99.90;;;;;;2519398;23;20021;-71
2022/04/14 01:57:53;;;;;;;23.83;15.45;;;10.30;99.90;;;;;;2518525;23;20002;-72
2022/04/14 01:58:54;;;;;;;28.30;18.00;;;10.30;99.90;;;;;;2518662;23;20013;-71
2022/04/14 01:59:57;;;;;;;31.02;19.08;;;10.30;99.90;;;;;;2518437;23;20499;-71
2022/04/14 02:00:57;;;;;;;36.15;20.00;;;10.30;99.90;;;;;;2518550;23;20054;-71
2022/04/14 02:01:58;;;;;;;39.97;21.70;;;10.30;99.90;;;;;;2518471;23;20559;-71
2022/04/14 02:02:58;;;;;;;33.85;20.58;;;10.30;99.90;;;;;;2519052;23;20058;-72
2022/04/14 02:04:01;;;;;;;36.83;20.95;;;10.30;99.90;;;;;;2518070;23;20017;-72
2022/04/14 02:05:03;;;;;;;33.00;19.45;;;10.20;99.90;;;;;;2518422;23;20011;-70
2022/04/14 02:06:03;;;;;;;32.88;19.52;;;10.20;99.90;;;;;;2518527;23;20087;-71
2022/04/14 02:07:05;;;;;;;28.98;17.60;;;10.30;99.90;;;;;;2519042;23;20332;-72
2022/04/14 02:08:06;;;;;;;25.30;16.50;;;10.20;99.90;;;;;;2519213;23;20010;-71
2022/04/14 02:09:07;;;;;;;22.52;15.07;;;10.20;99.90;;;;;;2518524;23;20340;-72
2022/04/14 02:10:07;;;;;;;21.35;14.85;;;10.20;99.90;;;;;;2518446;23;20105;-71
2022/04/14 02:11:10;;;;;;;19.70;14.20;;;10.20;99.90;;;;;;2519254;23;20011;-72
2022/04/14 02:12:11;;;;;;;17.60;13.65;;;10.20;99.90;;;;;;2518421;23;20014;-71
2022/04/14 02:13:12;;;;;;;18.40;13.45;;;10.20;99.90;;;;;;2518193;23;20010;-72
2022/04/14 02:14:12;;;;;;;18.45;13.50;;;10.20;99.90;;;;;;2518450;23;20435;-71
2022/04/14 02:15:13;;;;;;;18.20;13.68;;;10.20;99.90;;;;;;2518373;23;20518;-72
2022/04/14 02:16:14;;;;;;;17.42;13.07;;;10.20;99.90;;;;;;2519190;23;20005;-72
2022/04/14 02:17:15;;;;;;;17.15;13.00;;;10.20;99.90;;;;;;2519305;23;20424;-72
2022/04/14 02:18:15;;;;;;;16.25;12.85;;;10.20;99.90;;;;;;2519106;23;20037;-71
2022/04/14 02:19:16;;;;;;;17.13;13.18;;;10.20;99.90;;;;;;2519159;23;20061;-71
2022/04/14 02:20:16;;;;;;;17.55;13.38;;;10.20;99.90;;;;;;2519028;23;20483;-71
2022/04/14 02:21:17;;;;;;;14.57;12.18;;;10.20;99.90;;;;;;2519083;23;20008;-72
2022/04/14 02:22:18;;;;;;;16.58;12.15;;;10.20;99.90;;;;;;2519037;23;20443;-71
2022/04/14 02:23:19;;;;;;;16.25;12.38;;;10.20;99.90;;;;;;2518673;23;20013;-71
2022/04/14 02:24:20;;;;;;;17.35;12.85;;;10.20;99.90;;;;;;2518250;23;19998;-72
2022/04/14 02:25:20;;;;;;;16.30;12.48;;;10.10;99.90;;;;;;2518352;23;20355;-72
2022/04/14 02:26:21;;;;;;;15.52;12.35;;;10.10;99.90;;;;;;2518880;23;20139;-71
2022/04/14 02:27:22;;;;;;;15.35;12.38;;;10.10;99.90;;;;;;2518991;23;20002;-71
2022/04/14 02:28:23;;;;;;;14.30;11.73;;;10.10;99.90;;;;;;2518956;23;20002;-72
2022/04/14 02:29:23;;;;;;;15.38;12.13;;;10.10;99.90;;;;;;2519000;23;20093;-71
2022/04/14 02:30:24;;;;;;;14.77;11.60;;;10.10;99.90;;;;;;2518902;23;20097;-71
2022/04/14 02:31:25;;;;;;;14.43;11.88;;;10.10;99.90;;;;;;2519112;23;20014;-71
2022/04/14 02:32:25;;;;;;;16.27;11.88;;;10.10;99.90;;;;;;2518271;23;20074;-72
2022/04/14 02:33:26;;;;;;;15.38;11.90;;;10.10;99.90;;;;;;2517998;23;20138;-72
2022/04/14 02:34:27;;;;;;;16.55;11.95;;;10.10;99.90;;;;;;2519098;23;20006;-72
2022/04/14 02:35:27;;;;;;;14.52;11.80;;;10.10;99.90;;;;;;2518420;23;20510;-72
2022/04/14 02:36:28;;;;;;;17.10;12.70;;;10.10;99.90;;;;;;2518327;23;20408;-72
2022/04/14 02:37:28;;;;;;;14.40;11.95;;;10.10;99.90;;;;;;2517977;23;20030;-71
2022/04/14 02:38:29;;;;;;;16.35;12.35;;;10.10;99.90;;;;;;2518296;23;20011;-71
2022/04/14 02:39:31;;;;;;;14.98;12.25;;;10.10;99.90;;;;;;2519098;23;20003;-72
2022/04/14 02:40:31;;;;;;;15.27;12.85;;;10.10;99.90;;;;;;2518981;23;20038;-72
2022/04/14 02:41:32;;;;;;;18.95;12.70;;;10.10;99.90;;;;;;2519329;23;20021;-72
2022/04/14 02:42:32;;;;;;;17.05;12.38;;;10.10;99.90;;;;;;2519178;23;20038;-71
2022/04/14 02:43:37;;;;;;;18.30;12.52;;;10.10;99.90;;;;;;2519003;23;20006;-72
2022/04/14 02:44:38;;;;;;;17.35;12.25;;;10.00;99.90;;;;;;2518436;23;20018;-72
2022/04/14 02:45:38;;;;;;;16.33;12.65;;;10.00;99.90;;;;;;2518571;23;20058;-72
2022/04/14 02:46:39;;;;;;;17.33;12.55;;;10.00;99.90;;;;;;2519342;23;20006;-72
2022/04/14 02:47:40;;;;;;;15.15;11.80;;;10.00;99.90;;;;;;2519261;23;20007;-72
2022/04/14 02:48:40;;;;;;;14.90;12.10;;;10.00;99.90;;;;;;2519454;23;20379;-72
2022/04/14 02:49:41;;;;;;;15.70;12.45;;;9.90;99.90;;;;;;2519115;23;20010;-73
2022/04/14 02:50:43;;;;;;;16.50;12.57;;;9.90;99.90;;;;;;2519014;23;20889;-72
2022/04/14 02:51:43;;;;;;;16.33;12.80;;;9.90;99.90;;;;;;2519137;23;20052;-73
2022/04/14 02:52:44;;;;;;;16.63;12.57;;;9.90;99.90;;;;;;2518968;23;20435;-72
2022/04/14 02:53:45;;;;;;;15.60;12.48;;;9.90;99.90;;;;;;2518651;23;20021;-72
2022/04/14 02:54:45;;;;;;;15.60;12.23;;;9.80;99.90;;;;;;2519470;23;20073;-72
2022/04/14 02:55:46;;;;;;;14.75;11.90;;;9.80;99.90;;;;;;2519858;23;20006;-72
2022/04/14 02:56:46;;;;;;;15.88;12.68;;;9.80;99.90;;;;;;2519913;23;20017;-72
2022/04/14 02:57:48;;;;;;;24.05;14.48;;;9.80;99.90;;;;;;2519775;23;20003;-72
2022/04/14 02:58:49;;;;;;;21.90;15.25;;;9.80;99.90;;;;;;2519897;23;20391;-72
2022/04/14 02:59:49;;;;;;;23.17;15.05;;;9.80;99.90;;;;;;2519030;23;20002;-72
2022/04/14 03:00:50;;;;;;;21.42;14.18;;;9.80;99.90;;;;;;2519027;23;20061;-72
2022/04/14 03:01:51;;;;;;;22.58;14.25;;;9.80;99.90;;;;;;2519068;23;20010;-72
2022/04/14 03:02:51;;;;;;;19.40;14.05;;;9.80;99.90;;;;;;2507332;23;20014;-72
2022/04/14 03:03:52;;;;;;;20.42;14.27;;;9.80;99.90;;;;;;2506889;23;20034;-72
2022/04/14 03:04:53;;;;;;;17.55;13.70;;;9.70;99.90;;;;;;2519106;23;20089;-72
2022/04/14 03:05:54;;;;;;;18.23;14.15;;;9.70;99.90;;;;;;2507175;23;20058;-72
2022/04/14 03:06:55;;;;;;;17.80;13.38;;;9.70;99.90;;;;;;2507325;23;20015;-72
2022/04/14 03:07:55;;;;;;;20.67;13.90;;;9.70;99.90;;;;;;2519907;23;20006;-72
2022/04/14 03:08:56;;;;;;;18.52;13.82;;;9.60;99.90;;;;;;2519888;23;20054;-72
2022/04/14 03:09:56;;;;;;;20.63;14.38;;;9.60;99.90;;;;;;2519724;23;20009;-72
2022/04/14 03:10:57;;;;;;;19.88;15.23;;;9.60;99.90;;;;;;2519747;23;20011;-72
2022/04/14 03:11:58;;;;;;;24.30;17.52;;;9.60;99.90;;;;;;2520037;23;20018;-72
2022/04/14 03:12:58;;;;;;;26.88;18.40;;;9.50;99.90;;;;;;2519081;23;20391;-72
2022/04/14 03:13:59;;;;;;;29.17;18.88;;;9.50;99.90;;;;;;2518684;23;20073;-72
2022/04/14 03:14:59;;;;;;;25.08;18.25;;;9.50;99.90;;;;;;2518965;23;20022;-72
2022/04/14 03:16:00;;;;;;;27.70;18.90;;;9.40;99.90;;;;;;2519062;23;20618;-72
2022/04/14 03:17:00;;;;;;;27.17;18.23;;;9.40;99.90;;;;;;2519861;23;20011;-72
2022/04/14 03:18:01;;;;;;;29.35;19.30;;;9.40;99.90;;;;;;2519797;23;20006;-72
2022/04/14 03:19:02;;;;;;;28.05;18.73;;;9.40;99.90;;;;;;2519837;23;20114;-72
2022/04/14 03:20:03;;;;;;;25.58;17.85;;;9.40;99.90;;;;;;2519697;23;20007;-71
2022/04/14 03:21:04;;;;;;;25.92;17.10;;;9.40;99.90;;;;;;2519848;23;19998;-71
2022/04/14 03:22:04;;;;;;;28.10;18.88;;;9.40;99.90;;;;;;2519951;23;20011;-71
2022/04/14 03:23:06;;;;;;;27.77;18.67;;;9.40;99.90;;;;;;2519575;23;20491;-72
2022/04/14 03:24:06;;;;;;;29.20;18.80;;;9.40;99.90;;;;;;2519891;23;20009;-71
2022/04/14 03:25:09;;;;;;;29.90;20.73;;;9.30;99.90;;;;;;2519937;23;20006;-71
2022/04/14 03:26:10;;;;;;;32.85;21.83;;;9.30;99.90;;;;;;2519889;23;20542;-70
2022/04/14 03:27:10;;;;;;;32.88;21.70;;;9.30;99.90;;;;;;2519053;23;20010;-71
2022/04/14 03:28:11;;;;;;;33.05;21.17;;;9.30;99.90;;;;;;2519144;23;20430;-70
2022/04/14 03:29:11;;;;;;;30.83;20.50;;;9.30;99.90;;;;;;2519800;23;20357;-70
2022/04/14 03:30:12;;;;;;;32.97;20.75;;;9.30;99.90;;;;;;2519631;23;20006;-72
2022/04/14 03:31:13;;;;;;;30.13;20.20;;;9.30;99.90;;;;;;2519880;23;20014;-72
2022/04/14 03:32:13;;;;;;;30.33;20.20;;;9.30;99.90;;;;;;2520011;23;20013;-72
2022/04/14 03:33:14;;;;;;;28.80;19.27;;;9.20;99.90;;;;;;2519522;23;20011;-72
2022/04/14 03:34:15;;;;;;;32.20;19.60;;;9.20;99.90;;;;;;2519869;23;20411;-72
2022/04/14 03:35:16;;;;;;;28.45;19.17;;;9.20;99.90;;;;;;2519843;23;20014;-72
2022/04/14 03:36:16;;;;;;;28.55;19.67;;;9.20;99.90;;;;;;2519157;23;20006;-71
2022/04/14 03:37:17;;;;;;;29.23;18.13;;;9.20;99.90;;;;;;2519353;23;20595;-71
2022/04/14 03:38:17;;;;;;;26.35;17.45;;;9.20;99.90;;;;;;2520105;23;20383;-70
2022/04/14 03:39:18;;;;;;;26.85;17.67;;;9.10;99.90;;;;;;2520173;23;20038;-70
2022/04/14 03:40:19;;;;;;;23.00;16.25;;;9.20;99.90;;;;;;2519982;23;20013;-70
2022/04/14 03:41:19;;;;;;;22.95;15.75;;;9.10;99.90;;;;;;2520388;23;20050;-70
2022/04/14 03:42:20;;;;;;;19.95;14.27;;;9.10;99.90;;;;;;2519545;23;20006;-71
2022/04/14 03:43:20;;;;;;;20.48;15.07;;;9.10;99.90;;;;;;2518993;23;20009;-71
2022/04/14 03:44:21;;;;;;;19.15;13.65;;;9.10;99.90;;;;;;2519995;23;20340;-71
2022/04/14 03:45:21;;;;;;;20.33;14.20;;;9.10;99.90;;;;;;2520166;23;20038;-71
2022/04/14 03:46:22;;;;;;;19.52;13.95;;;9.10;99.90;;;;;;2520762;23;20026;-71
2022/04/14 03:47:23;;;;;;;19.15;13.43;;;9.10;99.90;;;;;;2520929;23;20006;-71
2022/04/14 03:48:23;;;;;;;19.63;13.75;;;9.00;99.90;;;;;;2520250;23;20711;-71
2022/04/14 03:49:24;;;;;;;19.00;13.50;;;9.10;99.90;;;;;;2520247;23;20015;-71
2022/04/14 03:50:25;;;;;;;18.13;13.20;;;9.10;99.90;;;;;;2520727;23;20057;-70
2022/04/14 03:51:25;;;;;;;18.60;12.43;;;9.10;99.90;;;;;;2520510;23;20002;-72
2022/04/14 03:52:26;;;;;;;17.55;12.88;;;9.10;99.90;;;;;;2520218;23;20455;-72
2022/04/14 03:53:27;;;;;;;16.42;12.45;;;9.10;99.90;;;;;;2520305;23;20007;-71
2022/04/14 03:54:27;;;;;;;15.23;11.98;;;9.10;99.90;;;;;;2520067;23;20098;-72
2022/04/14 03:55:28;;;;;;;18.05;11.90;;;9.10;99.90;;;;;;2508402;23;20474;-72
2022/04/14 03:56:29;;;;;;;18.17;12.45;;;9.10;99.90;;;;;;2497240;23;20090;-72
2022/04/14 03:57:29;;;;;;;17.02;12.40;;;9.10;99.90;;;;;;2509749;23;20023;-70
2022/04/14 03:58:30;;;;;;;16.83;13.10;;;9.10;99.90;;;;;;2522308;23;20050;-71
2022/04/14 03:59:30;;;;;;;19.38;13.43;;;9.10;99.90;;;;;;2521256;23;20419;-71
2022/04/14 04:00:32;;;;;;;18.20;13.55;;;9.10;99.90;;;;;;2520607;23;20006;-71
2022/04/14 04:01:32;;;;;;;21.60;14.65;;;9.10;99.90;;;;;;2520153;23;20085;-71
2022/04/14 04:02:35;;;;;;;19.38;14.43;;;9.10;99.90;;;;;;2519245;23;20006;-71
2022/04/14 04:03:36;;;;;;;20.65;14.63;;;9.10;99.90;;;;;;2519091;23;20007;-71
2022/04/14 04:04:36;;;;;;;19.13;14.40;;;9.10;99.90;;;;;;2519855;23;20032;-70
2022/04/14 04:05:38;;;;;;;20.38;13.85;;;9.10;99.90;;;;;;2519903;23;20046;-72
2022/04/14 04:06:38;;;;;;;18.98;13.57;;;9.10;99.90;;;;;;2519247;23;20101;-75
2022/04/14 04:07:39;;;;;;;20.15;14.70;;;9.10;99.90;;;;;;2518966;23;20002;-73
2022/04/14 04:08:39;;;;;;;20.67;14.07;;;9.00;99.90;;;;;;2519855;23;20002;-73
2022/04/14 04:09:40;;;;;;;17.88;13.80;;;9.00;99.90;;;;;;2519570;23;20009;-73
2022/04/14 04:10:41;;;;;;;18.63;13.75;;;9.00;99.90;;;;;;2519830;23;20027;-70
2022/04/14 04:11:41;;;;;;;17.48;13.45;;;9.00;99.90;;;;;;2519446;23;20451;-72
2022/04/14 04:12:42;;;;;;;17.90;13.07;;;9.00;99.90;;;;;;2519249;23;20012;-72
2022/04/14 04:13:42;;;;;;;17.23;13.40;;;9.00;99.90;;;;;;2519744;23;20491;-71
2022/04/14 04:14:43;;;;;;;16.85;12.65;;;9.00;99.90;;;;;;2519965;23;20003;-72
2022/04/14 04:15:44;;;;;;;18.00;13.32;;;9.00;99.90;;;;;;2520425;23;20013;-71
2022/04/14 04:16:45;;;;;;;18.95;13.27;;;9.00;99.90;;;;;;2519446;23;20014;-71
2022/04/14 04:17:46;;;;;;;16.33;13.10;;;9.00;99.90;;;;;;2519106;23;20037;-72
2022/04/14 04:18:47;;;;;;;17.10;13.70;;;9.00;99.90;;;;;;2519182;23;20015;-72
2022/04/14 04:19:47;;;;;;;18.60;13.48;;;9.00;99.90;;;;;;2519203;23;20030;-72
2022/04/14 04:20:48;;;;;;;18.60;13.70;;;9.00;99.90;;;;;;2518985;23;20022;-71
2022/04/14 04:21:49;;;;;;;19.55;13.80;;;9.00;99.90;;;;;;2519238;23;20438;-71
2022/04/14 04:22:49;;;;;;;16.30;12.73;;;9.00;99.90;;;;;;2519903;23;20030;-72
2022/04/14 04:23:50;;;;;;;16.42;12.98;;;9.00;99.90;;;;;;2519525;23;20010;-72
2022/04/14 04:24:50;;;;;;;17.25;12.63;;;9.10;99.90;;;;;;2519939;23;20469;-71
2022/04/14 04:25:51;;;;;;;16.45;13.13;;;9.10;99.90;;;;;;2520047;23;20532;-72
2022/04/14 04:26:52;;;;;;;16.33;12.95;;;9.00;99.90;;;;;;2519918;23;20045;-72
2022/04/14 04:27:53;;;;;;;18.83;12.93;;;9.00;99.90;;;;;;2519928;23;20006;-72
2022/04/14 04:28:53;;;;;;;15.65;12.48;;;9.00;99.90;;;;;;2519948;23;20428;-72
2022/04/14 04:29:54;;;;;;;20.48;13.05;;;9.00;99.90;;;;;;2519631;23;20471;-71
2022/04/14 04:30:54;;;;;;;18.67;13.57;;;9.00;99.90;;;;;;2519926;23;20002;-72
2022/04/14 04:31:56;;;;;;;18.67;13.85;;;9.10;99.90;;;;;;2524191;23;20007;-71
2022/04/14 04:32:56;;;;;;;20.00;14.25;;;9.10;99.90;;;;;;2523731;23;20014;-72
2022/04/14 04:33:57;;;;;;;19.10;14.02;;;9.00;99.90;;;;;;2524057;23;20006;-71
2022/04/14 04:34:57;;;;;;;18.02;13.50;;;9.10;99.90;;;;;;2523434;23;20089;-72
2022/04/14 04:35:58;;;;;;;18.33;13.35;;;9.10;99.90;;;;;;2522551;23;20030;-72
2022/04/14 04:36:58;;;;;;;17.90;13.38;;;9.10;99.90;;;;;;2521519;23;20002;-72
2022/04/14 04:37:59;;;;;;;17.20;13.05;;;9.10;99.90;;;;;;2523047;23;20088;-72
2022/04/14 04:39:01;;;;;;;20.95;13.57;;;9.10;99.90;;;;;;2520782;23;20590;-72
2022/04/14 04:40:03;;;;;;;18.52;13.45;;;9.10;99.90;;;;;;2521713;23;20011;-72
2022/04/14 04:41:05;;;;;;;16.88;13.30;;;9.10;99.90;;;;;;2524226;23;20006;-72
2022/04/14 04:42:06;;;;;;;16.45;12.68;;;9.10;99.90;;;;;;2525328;23;20007;-72
2022/04/14 04:43:06;;;;;;;17.15;12.50;;;9.20;99.90;;;;;;2523633;23;20003;-71
2022/04/14 04:44:07;;;;;;;17.67;13.20;;;9.20;99.90;;;;;;2524281;23;19998;-72
2022/04/14 04:45:08;;;;;;;18.83;14.13;;;9.20;99.90;;;;;;2523798;23;20023;-70
2022/04/14 04:46:08;;;;;;;19.40;14.00;;;9.30;99.90;;;;;;2519972;23;20021;-71
2022/04/14 04:47:09;;;;;;;18.35;13.60;;;9.30;99.90;;;;;;2519578;23;20034;-72
2022/04/14 04:48:10;;;;;;;20.75;14.07;;;9.30;99.90;;;;;;2519049;23;20057;-72
2022/04/14 04:49:10;;;;;;;19.27;13.70;;;9.30;99.90;;;;;;2520212;23;20139;-73
2022/04/14 04:50:11;;;;;;;17.88;13.60;;;9.40;99.90;;;;;;2519859;23;20054;-71
2022/04/14 04:51:11;;;;;;;18.05;12.98;;;9.40;99.90;;;;;;2520350;23;20006;-72
2022/04/14 04:52:12;;;;;;;17.70;13.07;;;9.40;99.90;;;;;;2519739;23;20043;-72
2022/04/14 04:53:12;;;;;;;18.98;13.00;;;9.50;99.90;;;;;;2519347;23;20014;-74
2022/04/14 04:54:13;;;;;;;17.48;12.90;;;9.50;99.90;;;;;;2519648;23;20006;-72
2022/04/14 04:55:14;;;;;;;17.15;12.80;;;9.50;99.90;;;;;;2519854;23;20025;-71
2022/04/14 04:56:15;;;;;;;19.30;12.98;;;9.50;99.90;;;;;;2520625;23;20022;-72
2022/04/14 04:57:15;;;;;;;18.73;13.00;;;9.60;99.90;;;;;;2520389;23;20006;-73
2022/04/14 04:58:16;;;;;;;18.90;13.43;;;9.60;99.90;;;;;;2519506;23;20056;-73
2022/04/14 04:59:16;;;;;;;17.42;13.00;;;9.70;99.90;;;;;;2519566;23;20010;-72
2022/04/14 05:00:17;;;;;;;19.23;13.23;;;9.80;99.90;;;;;;2519199;23;20058;-71
2022/04/14 05:01:18;;;;;;;16.65;12.52;;;9.90;99.90;;;;;;2520741;23;20008;-71
2022/04/14 05:02:18;;;;;;;16.35;12.32;;;10.00;99.90;;;;;;2519472;23;20661;-72
2022/04/14 05:03:21;;;;;;;16.85;12.65;;;10.10;99.90;;;;;;2518880;23;20053;-72
2022/04/14 05:04:21;;;;;;;18.30;12.40;;;10.20;99.90;;;;;;2519647;23;20034;-72
2022/04/14 05:05:23;;;;;;;15.25;12.13;;;10.30;99.90;;;;;;2519732;23;20534;-71
2022/04/14 05:06:24;;;;;;;17.08;12.02;;;10.40;99.90;;;;;;2518925;23;20072;-72
2022/04/14 05:07:25;;;;;;;16.75;12.07;;;10.50;99.90;;;;;;2518788;23;20089;-72
2022/04/14 05:08:25;;;;;;;16.25;12.23;;;10.70;99.90;;;;;;2519637;23;20081;-73
2022/04/14 05:09:26;;;;;;;18.00;12.50;;;10.90;99.90;;;;;;2519556;23;20517;-73
2022/04/14 05:10:27;;;;;;;17.52;12.55;;;11.00;99.90;;;;;;2519424;23;20037;-72